sensor_id;sensor_type;location;lat;lon;timestamp;P1;durP1;ratioP1;P2;durP2;ratioP2
11338;SDS011;5724;42.684;23.252;2022-08-19T00:00:34;8.18;;;7.55;;
11338;SDS011;5724;42.684;23.252;2022-08-19T00:03:00;8.02;;;7.47;;
11338;SDS011;5724;42.684;23.252;2022-08-19T00:05:26;6.90;;;6.28;;
11338;SDS011;5724;42.684;23.252;2022-08-19T00:07:51;5.78;;;5.55;;
11338;SDS011;5724;42.684;23.252;2022-08-19T00:10:17;4.57;;;4.28;;
11338;SDS011;5724;42.684;23.252;2022-08-19T00:12:44;5.00;;;4.70;;
11338;SDS011;5724;42.684;23.252;2022-08-19T00:15:10;5.22;;;4.82;;
11338;SDS011;5724;42.684;23.252;2022-08-19T00:17:39;6.28;;;5.88;;
11338;SDS011;5724;42.684;23.252;2022-08-19T00:20:07;5.13;;;4.93;;
11338;SDS011;5724;42.684;23.252;2022-08-19T00:22:35;5.65;;;5.25;;
11338;SDS011;5724;42.684;23.252;2022-08-19T00:25:01;5.43;;;5.13;;
11338;SDS011;5724;42.684;23.252;2022-08-19T00:27:27;5.40;;;5.10;;
11338;SDS011;5724;42.684;23.252;2022-08-19T00:29:52;5.63;;;5.30;;
11338;SDS011;5724;42.684;23.252;2022-08-19T00:32:18;5.10;;;4.80;;
11338;SDS011;5724;42.684;23.252;2022-08-19T00:34:43;5.32;;;5.00;;
11338;SDS011;5724;42.684;23.252;2022-08-19T00:37:09;6.07;;;5.57;;
11338;SDS011;5724;42.684;23.252;2022-08-19T00:39:34;5.00;;;4.80;;
11338;SDS011;5724;42.684;23.252;2022-08-19T00:42:00;5.72;;;5.40;;
11338;SDS011;5724;42.684;23.252;2022-08-19T00:44:26;5.30;;;5.10;;
11338;SDS011;5724;42.684;23.252;2022-08-19T00:46:54;4.63;;;4.43;;
11338;SDS011;5724;42.684;23.252;2022-08-19T00:49:26;5.13;;;4.82;;
11338;SDS011;5724;42.684;23.252;2022-08-19T00:51:55;4.90;;;4.50;;
11338;SDS011;5724;42.684;23.252;2022-08-19T00:54:29;4.85;;;4.55;;
11338;SDS011;5724;42.684;23.252;2022-08-19T00:56:56;4.72;;;4.32;;
11338;SDS011;5724;42.684;23.252;2022-08-19T00:59:23;5.15;;;4.65;;
11338;SDS011;5724;42.684;23.252;2022-08-19T01:01:50;5.00;;;4.80;;
11338;SDS011;5724;42.684;23.252;2022-08-19T01:04:15;4.78;;;4.57;;
11338;SDS011;5724;42.684;23.252;2022-08-19T01:06:41;5.32;;;5.05;;
11338;SDS011;5724;42.684;23.252;2022-08-19T01:09:07;5.05;;;4.82;;
11338;SDS011;5724;42.684;23.252;2022-08-19T01:11:34;5.43;;;5.13;;
11338;SDS011;5724;42.684;23.252;2022-08-19T01:14:03;5.63;;;5.22;;
11338;SDS011;5724;42.684;23.252;2022-08-19T01:16:30;5.07;;;4.80;;
11338;SDS011;5724;42.684;23.252;2022-08-19T01:18:57;5.20;;;4.90;;
11338;SDS011;5724;42.684;23.252;2022-08-19T01:21:37;5.32;;;4.93;;
11338;SDS011;5724;42.684;23.252;2022-08-19T01:24:09;5.40;;;5.10;;
11338;SDS011;5724;42.684;23.252;2022-08-19T01:26:39;5.75;;;5.22;;
11338;SDS011;5724;42.684;23.252;2022-08-19T01:29:07;5.45;;;5.15;;
11338;SDS011;5724;42.684;23.252;2022-08-19T01:31:33;5.40;;;5.00;;
11338;SDS011;5724;42.684;23.252;2022-08-19T01:34:00;5.07;;;4.78;;
11338;SDS011;5724;42.684;23.252;2022-08-19T01:36:28;5.82;;;5.22;;
11338;SDS011;5724;42.684;23.252;2022-08-19T01:38:54;5.20;;;4.80;;
11338;SDS011;5724;42.684;23.252;2022-08-19T01:41:20;5.57;;;5.28;;
11338;SDS011;5724;42.684;23.252;2022-08-19T01:43:48;5.25;;;4.95;;
11338;SDS011;5724;42.684;23.252;2022-08-19T01:46:14;6.05;;;5.65;;
11338;SDS011;5724;42.684;23.252;2022-08-19T01:48:41;5.65;;;5.35;;
11338;SDS011;5724;42.684;23.252;2022-08-19T01:51:08;5.97;;;5.50;;
11338;SDS011;5724;42.684;23.252;2022-08-19T01:53:35;6.38;;;5.90;;
11338;SDS011;5724;42.684;23.252;2022-08-19T01:56:01;6.63;;;6.03;;
11338;SDS011;5724;42.684;23.252;2022-08-19T01:58:31;6.03;;;5.60;;
11338;SDS011;5724;42.684;23.252;2022-08-19T02:01:12;6.82;;;6.20;;
11338;SDS011;5724;42.684;23.252;2022-08-19T02:03:38;6.38;;;5.90;;
11338;SDS011;5724;42.684;23.252;2022-08-19T02:06:04;6.55;;;6.07;;
11338;SDS011;5724;42.684;23.252;2022-08-19T02:08:31;7.15;;;6.47;;
11338;SDS011;5724;42.684;23.252;2022-08-19T02:10:59;6.88;;;6.47;;
11338;SDS011;5724;42.684;23.252;2022-08-19T02:13:25;6.43;;;5.97;;
11338;SDS011;5724;42.684;23.252;2022-08-19T02:15:51;6.85;;;6.28;;
11338;SDS011;5724;42.684;23.252;2022-08-19T02:18:17;6.22;;;5.93;;
11338;SDS011;5724;42.684;23.252;2022-08-19T02:20:43;6.85;;;6.28;;
11338;SDS011;5724;42.684;23.252;2022-08-19T02:23:10;6.70;;;6.20;;
11338;SDS011;5724;42.684;23.252;2022-08-19T02:25:37;6.70;;;6.22;;
11338;SDS011;5724;42.684;23.252;2022-08-19T02:28:03;6.40;;;6.00;;
11338;SDS011;5724;42.684;23.252;2022-08-19T02:30:30;7.10;;;6.53;;
11338;SDS011;5724;42.684;23.252;2022-08-19T02:32:55;6.72;;;6.15;;
11338;SDS011;5724;42.684;23.252;2022-08-19T02:35:21;7.00;;;6.30;;
11338;SDS011;5724;42.684;23.252;2022-08-19T02:37:47;6.63;;;6.05;;
11338;SDS011;5724;42.684;23.252;2022-08-19T02:40:32;7.10;;;6.60;;
11338;SDS011;5724;42.684;23.252;2022-08-19T02:43:01;7.95;;;7.30;;
11338;SDS011;5724;42.684;23.252;2022-08-19T02:45:36;7.55;;;6.93;;
11338;SDS011;5724;42.684;23.252;2022-08-19T02:48:02;8.00;;;6.97;;
11338;SDS011;5724;42.684;23.252;2022-08-19T02:50:29;8.50;;;7.07;;
11338;SDS011;5724;42.684;23.252;2022-08-19T02:52:55;7.90;;;7.03;;
11338;SDS011;5724;42.684;23.252;2022-08-19T02:55:21;7.15;;;6.55;;
11338;SDS011;5724;42.684;23.252;2022-08-19T02:57:46;6.35;;;5.85;;
11338;SDS011;5724;42.684;23.252;2022-08-19T03:00:12;6.43;;;5.95;;
11338;SDS011;5724;42.684;23.252;2022-08-19T03:02:38;6.30;;;5.70;;
11338;SDS011;5724;42.684;23.252;2022-08-19T03:05:05;8.23;;;6.47;;
11338;SDS011;5724;42.684;23.252;2022-08-19T03:07:32;7.40;;;6.78;;
11338;SDS011;5724;42.684;23.252;2022-08-19T03:09:57;10.38;;;6.65;;
11338;SDS011;5724;42.684;23.252;2022-08-19T03:12:23;6.93;;;6.45;;
11338;SDS011;5724;42.684;23.252;2022-08-19T03:14:48;7.10;;;6.60;;
11338;SDS011;5724;42.684;23.252;2022-08-19T03:17:14;7.78;;;7.18;;
11338;SDS011;5724;42.684;23.252;2022-08-19T03:19:40;7.45;;;6.90;;
11338;SDS011;5724;42.684;23.252;2022-08-19T03:22:05;7.50;;;7.00;;
11338;SDS011;5724;42.684;23.252;2022-08-19T03:24:31;7.20;;;6.68;;
11338;SDS011;5724;42.684;23.252;2022-08-19T03:26:56;7.05;;;6.50;;
11338;SDS011;5724;42.684;23.252;2022-08-19T03:29:24;7.38;;;6.85;;
11338;SDS011;5724;42.684;23.252;2022-08-19T03:31:51;6.75;;;6.22;;
11338;SDS011;5724;42.684;23.252;2022-08-19T03:34:20;9.70;;;7.32;;
11338;SDS011;5724;42.684;23.252;2022-08-19T03:36:51;12.10;;;7.55;;
11338;SDS011;5724;42.684;23.252;2022-08-19T03:39:17;7.75;;;7.20;;
11338;SDS011;5724;42.684;23.252;2022-08-19T03:41:44;12.55;;;7.43;;
11338;SDS011;5724;42.684;23.252;2022-08-19T03:44:12;7.35;;;6.68;;
11338;SDS011;5724;42.684;23.252;2022-08-19T03:46:39;7.63;;;7.00;;
11338;SDS011;5724;42.684;23.252;2022-08-19T03:49:04;8.13;;;7.43;;
11338;SDS011;5724;42.684;23.252;2022-08-19T03:51:34;8.30;;;7.53;;
11338;SDS011;5724;42.684;23.252;2022-08-19T03:54:02;8.27;;;7.72;;
11338;SDS011;5724;42.684;23.252;2022-08-19T03:56:30;10.50;;;8.48;;
11338;SDS011;5724;42.684;23.252;2022-08-19T03:58:58;10.75;;;7.72;;
11338;SDS011;5724;42.684;23.252;2022-08-19T04:01:26;8.70;;;8.00;;
11338;SDS011;5724;42.684;23.252;2022-08-19T04:03:53;8.65;;;7.57;;
11338;SDS011;5724;42.684;23.252;2022-08-19T04:06:22;12.38;;;7.88;;
11338;SDS011;5724;42.684;23.252;2022-08-19T04:08:49;7.97;;;7.40;;
11338;SDS011;5724;42.684;23.252;2022-08-19T04:11:18;8.40;;;7.60;;
11338;SDS011;5724;42.684;23.252;2022-08-19T04:13:49;10.60;;;7.95;;
11338;SDS011;5724;42.684;23.252;2022-08-19T04:16:19;10.55;;;7.70;;
11338;SDS011;5724;42.684;23.252;2022-08-19T04:18:47;8.82;;;8.13;;
11338;SDS011;5724;42.684;23.252;2022-08-19T04:21:20;9.25;;;8.40;;
11338;SDS011;5724;42.684;23.252;2022-08-19T04:23:47;8.35;;;7.50;;
11338;SDS011;5724;42.684;23.252;2022-08-19T04:26:18;8.60;;;8.00;;
11338;SDS011;5724;42.684;23.252;2022-08-19T04:28:46;8.40;;;7.65;;
11338;SDS011;5724;42.684;23.252;2022-08-19T04:31:16;8.45;;;7.60;;
11338;SDS011;5724;42.684;23.252;2022-08-19T04:33:44;8.55;;;7.78;;
11338;SDS011;5724;42.684;23.252;2022-08-19T04:36:19;8.70;;;7.85;;
11338;SDS011;5724;42.684;23.252;2022-08-19T04:38:47;8.55;;;7.93;;
11338;SDS011;5724;42.684;23.252;2022-08-19T04:41:13;7.97;;;7.18;;
11338;SDS011;5724;42.684;23.252;2022-08-19T04:43:57;8.23;;;7.38;;
11338;SDS011;5724;42.684;23.252;2022-08-19T04:46:22;9.15;;;7.70;;
11338;SDS011;5724;42.684;23.252;2022-08-19T04:48:48;9.00;;;7.55;;
11338;SDS011;5724;42.684;23.252;2022-08-19T04:51:13;8.73;;;7.88;;
11338;SDS011;5724;42.684;23.252;2022-08-19T04:53:41;10.35;;;8.35;;
11338;SDS011;5724;42.684;23.252;2022-08-19T04:58:34;9.00;;;8.45;;
11338;SDS011;5724;42.684;23.252;2022-08-19T05:01:00;8.98;;;8.02;;
11338;SDS011;5724;42.684;23.252;2022-08-19T05:03:26;9.07;;;8.20;;
11338;SDS011;5724;42.684;23.252;2022-08-19T05:05:51;11.10;;;8.60;;
11338;SDS011;5724;42.684;23.252;2022-08-19T05:08:18;8.70;;;7.88;;
11338;SDS011;5724;42.684;23.252;2022-08-19T05:10:46;15.20;;;8.90;;
11338;SDS011;5724;42.684;23.252;2022-08-19T05:13:13;9.68;;;8.20;;
11338;SDS011;5724;42.684;23.252;2022-08-19T05:15:40;10.48;;;8.93;;
11338;SDS011;5724;42.684;23.252;2022-08-19T05:18:06;12.45;;;9.68;;
11338;SDS011;5724;42.684;23.252;2022-08-19T05:20:50;17.55;;;10.50;;
11338;SDS011;5724;42.684;23.252;2022-08-19T05:23:34;17.83;;;10.05;;
11338;SDS011;5724;42.684;23.252;2022-08-19T05:26:00;10.50;;;9.50;;
11338;SDS011;5724;42.684;23.252;2022-08-19T05:28:25;10.95;;;9.80;;
11338;SDS011;5724;42.684;23.252;2022-08-19T05:30:52;10.07;;;9.18;;
11338;SDS011;5724;42.684;23.252;2022-08-19T05:33:20;11.40;;;9.50;;
11338;SDS011;5724;42.684;23.252;2022-08-19T05:35:46;13.63;;;9.52;;
11338;SDS011;5724;42.684;23.252;2022-08-19T05:38:13;12.20;;;9.50;;
11338;SDS011;5724;42.684;23.252;2022-08-19T05:40:39;9.75;;;8.93;;
11338;SDS011;5724;42.684;23.252;2022-08-19T05:43:05;10.48;;;8.80;;
11338;SDS011;5724;42.684;23.252;2022-08-19T05:45:33;11.38;;;9.50;;
11338;SDS011;5724;42.684;23.252;2022-08-19T05:48:03;10.80;;;9.75;;
11338;SDS011;5724;42.684;23.252;2022-08-19T05:50:29;9.32;;;8.70;;
11338;SDS011;5724;42.684;23.252;2022-08-19T05:52:55;10.88;;;8.98;;
11338;SDS011;5724;42.684;23.252;2022-08-19T05:55:20;10.77;;;9.68;;
11338;SDS011;5724;42.684;23.252;2022-08-19T05:57:47;9.48;;;8.80;;
11338;SDS011;5724;42.684;23.252;2022-08-19T06:00:13;9.13;;;8.30;;
11338;SDS011;5724;42.684;23.252;2022-08-19T06:02:39;12.40;;;8.10;;
11338;SDS011;5724;42.684;23.252;2022-08-19T06:05:05;8.95;;;7.45;;
11338;SDS011;5724;42.684;23.252;2022-08-19T06:07:34;13.13;;;8.25;;
11338;SDS011;5724;42.684;23.252;2022-08-19T06:10:01;9.38;;;8.57;;
11338;SDS011;5724;42.684;23.252;2022-08-19T06:12:29;10.05;;;7.90;;
11338;SDS011;5724;42.684;23.252;2022-08-19T06:14:58;9.75;;;7.80;;
11338;SDS011;5724;42.684;23.252;2022-08-19T06:17:24;10.50;;;7.72;;
11338;SDS011;5724;42.684;23.252;2022-08-19T06:19:51;10.95;;;8.85;;
11338;SDS011;5724;42.684;23.252;2022-08-19T06:22:17;14.18;;;9.80;;
11338;SDS011;5724;42.684;23.252;2022-08-19T06:24:42;11.20;;;8.43;;
11338;SDS011;5724;42.684;23.252;2022-08-19T06:27:08;16.98;;;8.85;;
11338;SDS011;5724;42.684;23.252;2022-08-19T06:29:34;9.50;;;8.65;;
11338;SDS011;5724;42.684;23.252;2022-08-19T06:32:01;10.30;;;9.50;;
11338;SDS011;5724;42.684;23.252;2022-08-19T06:34:29;10.20;;;9.23;;
11338;SDS011;5724;42.684;23.252;2022-08-19T06:36:58;10.68;;;9.07;;
11338;SDS011;5724;42.684;23.252;2022-08-19T06:39:29;10.93;;;9.25;;
11338;SDS011;5724;42.684;23.252;2022-08-19T06:41:57;10.40;;;9.50;;
11338;SDS011;5724;42.684;23.252;2022-08-19T06:44:26;12.88;;;9.38;;
11338;SDS011;5724;42.684;23.252;2022-08-19T06:46:56;13.23;;;9.32;;
11338;SDS011;5724;42.684;23.252;2022-08-19T06:49:22;11.15;;;9.93;;
11338;SDS011;5724;42.684;23.252;2022-08-19T06:51:48;20.90;;;10.15;;
11338;SDS011;5724;42.684;23.252;2022-08-19T06:54:15;10.20;;;8.68;;
11338;SDS011;5724;42.684;23.252;2022-08-19T06:56:41;11.35;;;8.85;;
11338;SDS011;5724;42.684;23.252;2022-08-19T06:59:12;11.93;;;9.20;;
11338;SDS011;5724;42.684;23.252;2022-08-19T07:01:41;10.93;;;9.73;;
11338;SDS011;5724;42.684;23.252;2022-08-19T07:04:10;14.73;;;10.25;;
11338;SDS011;5724;42.684;23.252;2022-08-19T07:06:36;9.70;;;9.05;;
11338;SDS011;5724;42.684;23.252;2022-08-19T07:09:03;10.60;;;9.60;;
11338;SDS011;5724;42.684;23.252;2022-08-19T07:11:30;11.80;;;9.23;;
11338;SDS011;5724;42.684;23.252;2022-08-19T07:13:56;17.55;;;10.07;;
11338;SDS011;5724;42.684;23.252;2022-08-19T07:16:21;11.85;;;9.57;;
11338;SDS011;5724;42.684;23.252;2022-08-19T07:18:50;15.18;;;10.48;;
11338;SDS011;5724;42.684;23.252;2022-08-19T07:21:17;11.27;;;10.07;;
11338;SDS011;5724;42.684;23.252;2022-08-19T07:23:44;13.38;;;9.98;;
11338;SDS011;5724;42.684;23.252;2022-08-19T07:26:18;11.30;;;9.95;;
11338;SDS011;5724;42.684;23.252;2022-08-19T07:28:46;12.13;;;9.80;;
11338;SDS011;5724;42.684;23.252;2022-08-19T07:31:14;14.95;;;10.40;;
11338;SDS011;5724;42.684;23.252;2022-08-19T07:33:46;16.70;;;9.90;;
11338;SDS011;5724;42.684;23.252;2022-08-19T07:36:14;12.60;;;9.25;;
11338;SDS011;5724;42.684;23.252;2022-08-19T07:38:42;13.82;;;9.85;;
11338;SDS011;5724;42.684;23.252;2022-08-19T07:41:11;15.02;;;9.35;;
11338;SDS011;5724;42.684;23.252;2022-08-19T07:43:38;10.60;;;9.38;;
11338;SDS011;5724;42.684;23.252;2022-08-19T07:46:04;14.00;;;8.68;;
11338;SDS011;5724;42.684;23.252;2022-08-19T07:48:37;8.80;;;7.93;;
11338;SDS011;5724;42.684;23.252;2022-08-19T07:51:03;11.60;;;9.52;;
11338;SDS011;5724;42.684;23.252;2022-08-19T07:53:32;11.38;;;8.25;;
11338;SDS011;5724;42.684;23.252;2022-08-19T07:55:58;12.50;;;8.25;;
11338;SDS011;5724;42.684;23.252;2022-08-19T07:58:28;9.32;;;8.30;;
11338;SDS011;5724;42.684;23.252;2022-08-19T08:00:55;9.05;;;7.53;;
11338;SDS011;5724;42.684;23.252;2022-08-19T08:03:21;12.23;;;8.13;;
11338;SDS011;5724;42.684;23.252;2022-08-19T08:06:10;14.10;;;7.43;;
11338;SDS011;5724;42.684;23.252;2022-08-19T08:08:55;7.68;;;6.88;;
11338;SDS011;5724;42.684;23.252;2022-08-19T08:11:36;10.65;;;7.53;;
11338;SDS011;5724;42.684;23.252;2022-08-19T08:14:24;9.60;;;7.63;;
11338;SDS011;5724;42.684;23.252;2022-08-19T08:17:00;8.50;;;7.40;;
11338;SDS011;5724;42.684;23.252;2022-08-19T08:19:26;10.23;;;7.03;;
11338;SDS011;5724;42.684;23.252;2022-08-19T08:21:53;10.93;;;7.55;;
11338;SDS011;5724;42.684;23.252;2022-08-19T08:24:20;11.20;;;7.45;;
11338;SDS011;5724;42.684;23.252;2022-08-19T08:26:46;7.65;;;7.03;;
11338;SDS011;5724;42.684;23.252;2022-08-19T08:29:12;9.68;;;7.20;;
11338;SDS011;5724;42.684;23.252;2022-08-19T08:31:38;7.22;;;6.63;;
11338;SDS011;5724;42.684;23.252;2022-08-19T08:34:05;10.85;;;7.07;;
11338;SDS011;5724;42.684;23.252;2022-08-19T08:36:31;8.20;;;6.70;;
11338;SDS011;5724;42.684;23.252;2022-08-19T08:39:00;8.45;;;5.80;;
11338;SDS011;5724;42.684;23.252;2022-08-19T08:44:06;10.48;;;4.63;;
11338;SDS011;5724;42.684;23.252;2022-08-19T08:46:47;4.72;;;4.43;;
11338;SDS011;5724;42.684;23.252;2022-08-19T08:54:50;8.00;;;5.22;;
11338;SDS011;5724;42.684;23.252;2022-08-19T08:57:30;6.07;;;5.45;;
11338;SDS011;5724;42.684;23.252;2022-08-19T09:00:00;8.23;;;5.32;;
11338;SDS011;5724;42.684;23.252;2022-08-19T09:02:30;5.55;;;5.07;;
11338;SDS011;5724;42.684;23.252;2022-08-19T09:04:56;10.00;;;5.88;;
11338;SDS011;5724;42.684;23.252;2022-08-19T09:13:07;7.38;;;5.38;;
11338;SDS011;5724;42.684;23.252;2022-08-19T09:15:58;6.30;;;5.68;;
11338;SDS011;5724;42.684;23.252;2022-08-19T09:18:38;6.00;;;4.68;;
11338;SDS011;5724;42.684;23.252;2022-08-19T09:21:18;5.28;;;4.85;;
11338;SDS011;5724;42.684;23.252;2022-08-19T09:23:45;6.20;;;4.32;;
11338;SDS011;5724;42.684;23.252;2022-08-19T09:26:13;5.40;;;5.10;;
11338;SDS011;5724;42.684;23.252;2022-08-19T09:28:41;5.57;;;5.03;;
11338;SDS011;5724;42.684;23.252;2022-08-19T09:31:11;5.72;;;4.63;;
11338;SDS011;5724;42.684;23.252;2022-08-19T09:33:39;4.45;;;4.13;;
11338;SDS011;5724;42.684;23.252;2022-08-19T09:36:06;3.67;;;3.47;;
11338;SDS011;5724;42.684;23.252;2022-08-19T09:38:34;4.30;;;3.92;;
11338;SDS011;5724;42.684;23.252;2022-08-19T09:41:04;4.40;;;4.20;;
11338;SDS011;5724;42.684;23.252;2022-08-19T09:43:31;4.50;;;4.10;;
11338;SDS011;5724;42.684;23.252;2022-08-19T09:46:01;4.38;;;4.10;;
11338;SDS011;5724;42.684;23.252;2022-08-19T09:48:34;4.18;;;3.78;;
11338;SDS011;5724;42.684;23.252;2022-08-19T09:51:03;4.20;;;3.55;;
11338;SDS011;5724;42.684;23.252;2022-08-19T09:53:30;5.30;;;3.70;;
11338;SDS011;5724;42.684;23.252;2022-08-19T09:55:56;5.30;;;3.72;;
11338;SDS011;5724;42.684;23.252;2022-08-19T09:58:21;3.65;;;3.30;;
11338;SDS011;5724;42.684;23.252;2022-08-19T10:00:51;4.95;;;3.60;;
11338;SDS011;5724;42.684;23.252;2022-08-19T10:03:18;4.00;;;3.80;;
11338;SDS011;5724;42.684;23.252;2022-08-19T10:05:44;4.07;;;3.78;;
11338;SDS011;5724;42.684;23.252;2022-08-19T10:08:35;3.97;;;3.67;;
11338;SDS011;5724;42.684;23.252;2022-08-19T10:11:02;5.70;;;3.65;;
11338;SDS011;5724;42.684;23.252;2022-08-19T10:13:29;5.13;;;3.75;;
11338;SDS011;5724;42.684;23.252;2022-08-19T10:16:02;3.83;;;3.58;;
11338;SDS011;5724;42.684;23.252;2022-08-19T10:18:30;4.20;;;3.88;;
11338;SDS011;5724;42.684;23.252;2022-08-19T10:21:09;6.05;;;3.90;;
11338;SDS011;5724;42.684;23.252;2022-08-19T10:23:37;4.55;;;4.18;;
11338;SDS011;5724;42.684;23.252;2022-08-19T10:26:04;3.85;;;3.55;;
11338;SDS011;5724;42.684;23.252;2022-08-19T10:28:32;4.47;;;3.95;;
11338;SDS011;5724;42.684;23.252;2022-08-19T10:31:10;4.18;;;3.90;;
11338;SDS011;5724;42.684;23.252;2022-08-19T10:33:38;4.93;;;3.80;;
11338;SDS011;5724;42.684;23.252;2022-08-19T10:36:09;5.90;;;4.05;;
11338;SDS011;5724;42.684;23.252;2022-08-19T10:38:37;5.43;;;3.70;;
11338;SDS011;5724;42.684;23.252;2022-08-19T10:41:21;4.25;;;3.90;;
11338;SDS011;5724;42.684;23.252;2022-08-19T10:43:52;4.03;;;3.72;;
11338;SDS011;5724;42.684;23.252;2022-08-19T10:46:20;4.57;;;4.25;;
11338;SDS011;5724;42.684;23.252;2022-08-19T10:48:47;4.80;;;4.38;;
11338;SDS011;5724;42.684;23.252;2022-08-19T10:51:14;4.10;;;3.90;;
11338;SDS011;5724;42.684;23.252;2022-08-19T10:53:59;4.35;;;4.05;;
11338;SDS011;5724;42.684;23.252;2022-08-19T10:56:25;6.72;;;4.05;;
11338;SDS011;5724;42.684;23.252;2022-08-19T10:59:10;4.63;;;4.30;;
11338;SDS011;5724;42.684;23.252;2022-08-19T11:01:39;4.13;;;3.83;;
11338;SDS011;5724;42.684;23.252;2022-08-19T11:04:06;4.30;;;4.10;;
11338;SDS011;5724;42.684;23.252;2022-08-19T11:06:35;4.93;;;4.60;;
11338;SDS011;5724;42.684;23.252;2022-08-19T11:09:01;4.57;;;4.30;;
11338;SDS011;5724;42.684;23.252;2022-08-19T11:11:28;6.65;;;5.13;;
11338;SDS011;5724;42.684;23.252;2022-08-19T11:13:56;4.90;;;4.32;;
11338;SDS011;5724;42.684;23.252;2022-08-19T11:16:23;6.13;;;4.15;;
11338;SDS011;5724;42.684;23.252;2022-08-19T11:18:52;4.78;;;4.25;;
11338;SDS011;5724;42.684;23.252;2022-08-19T11:21:21;4.35;;;4.05;;
11338;SDS011;5724;42.684;23.252;2022-08-19T11:23:51;4.28;;;4.03;;
11338;SDS011;5724;42.684;23.252;2022-08-19T11:26:19;4.13;;;3.70;;
11338;SDS011;5724;42.684;23.252;2022-08-19T11:28:46;4.28;;;4.05;;
11338;SDS011;5724;42.684;23.252;2022-08-19T11:31:12;4.70;;;4.30;;
11338;SDS011;5724;42.684;23.252;2022-08-19T11:33:40;4.57;;;4.28;;
11338;SDS011;5724;42.684;23.252;2022-08-19T11:36:05;4.85;;;4.45;;
11338;SDS011;5724;42.684;23.252;2022-08-19T11:38:32;5.18;;;4.30;;
11338;SDS011;5724;42.684;23.252;2022-08-19T11:41:00;4.43;;;4.03;;
11338;SDS011;5724;42.684;23.252;2022-08-19T11:43:27;4.43;;;4.03;;
11338;SDS011;5724;42.684;23.252;2022-08-19T11:45:53;4.50;;;4.07;;
11338;SDS011;5724;42.684;23.252;2022-08-19T11:48:20;4.80;;;4.20;;
11338;SDS011;5724;42.684;23.252;2022-08-19T11:50:49;4.10;;;3.80;;
11338;SDS011;5724;42.684;23.252;2022-08-19T11:53:15;4.28;;;3.97;;
11338;SDS011;5724;42.684;23.252;2022-08-19T11:55:43;6.22;;;4.45;;
11338;SDS011;5724;42.684;23.252;2022-08-19T11:58:09;4.43;;;4.13;;
11338;SDS011;5724;42.684;23.252;2022-08-19T12:00:36;4.30;;;4.10;;
11338;SDS011;5724;42.684;23.252;2022-08-19T12:03:02;4.10;;;3.65;;
11338;SDS011;5724;42.684;23.252;2022-08-19T12:05:28;3.92;;;3.70;;
11338;SDS011;5724;42.684;23.252;2022-08-19T12:07:53;4.38;;;3.97;;
11338;SDS011;5724;42.684;23.252;2022-08-19T12:10:19;4.30;;;3.97;;
11338;SDS011;5724;42.684;23.252;2022-08-19T12:12:45;4.25;;;4.05;;
11338;SDS011;5724;42.684;23.252;2022-08-19T12:15:11;4.10;;;3.80;;
11338;SDS011;5724;42.684;23.252;2022-08-19T12:17:39;4.32;;;3.90;;
11338;SDS011;5724;42.684;23.252;2022-08-19T12:20:07;4.47;;;4.05;;
11338;SDS011;5724;42.684;23.252;2022-08-19T12:22:35;4.53;;;4.10;;
11338;SDS011;5724;42.684;23.252;2022-08-19T12:25:02;7.03;;;4.07;;
11338;SDS011;5724;42.684;23.252;2022-08-19T12:27:28;4.25;;;3.85;;
11338;SDS011;5724;42.684;23.252;2022-08-19T12:29:53;9.70;;;3.95;;
11338;SDS011;5724;42.684;23.252;2022-08-19T12:32:19;5.47;;;3.70;;
11338;SDS011;5724;42.684;23.252;2022-08-19T12:34:44;4.68;;;3.90;;
11338;SDS011;5724;42.684;23.252;2022-08-19T12:37:12;4.68;;;3.88;;
11338;SDS011;5724;42.684;23.252;2022-08-19T12:39:38;6.85;;;4.20;;
11338;SDS011;5724;42.684;23.252;2022-08-19T12:42:06;3.90;;;3.60;;
11338;SDS011;5724;42.684;23.252;2022-08-19T12:44:33;4.85;;;3.92;;
11338;SDS011;5724;42.684;23.252;2022-08-19T12:46:59;4.07;;;3.70;;
11338;SDS011;5724;42.684;23.252;2022-08-19T12:49:26;4.20;;;3.80;;
11338;SDS011;5724;42.684;23.252;2022-08-19T12:51:53;5.60;;;3.90;;
11338;SDS011;5724;42.684;23.252;2022-08-19T12:54:18;3.83;;;3.53;;
11338;SDS011;5724;42.684;23.252;2022-08-19T12:56:44;4.28;;;3.90;;
11338;SDS011;5724;42.684;23.252;2022-08-19T12:59:10;4.70;;;4.40;;
11338;SDS011;5724;42.684;23.252;2022-08-19T13:01:36;4.13;;;3.75;;
11338;SDS011;5724;42.684;23.252;2022-08-19T13:04:02;4.40;;;4.03;;
11338;SDS011;5724;42.684;23.252;2022-08-19T13:06:27;4.70;;;3.72;;
11338;SDS011;5724;42.684;23.252;2022-08-19T13:08:53;4.78;;;3.75;;
11338;SDS011;5724;42.684;23.252;2022-08-19T13:11:20;5.38;;;4.10;;
11338;SDS011;5724;42.684;23.252;2022-08-19T13:13:49;4.25;;;3.85;;
11338;SDS011;5724;42.684;23.252;2022-08-19T13:16:16;5.10;;;4.18;;
11338;SDS011;5724;42.684;23.252;2022-08-19T13:18:44;4.25;;;4.05;;
11338;SDS011;5724;42.684;23.252;2022-08-19T13:21:12;4.07;;;3.75;;
11338;SDS011;5724;42.684;23.252;2022-08-19T13:23:38;3.92;;;3.72;;
11338;SDS011;5724;42.684;23.252;2022-08-19T13:26:06;4.10;;;3.80;;
11338;SDS011;5724;42.684;23.252;2022-08-19T13:28:33;5.00;;;4.47;;
11338;SDS011;5724;42.684;23.252;2022-08-19T13:31:18;5.85;;;3.63;;
11338;SDS011;5724;42.684;23.252;2022-08-19T13:34:04;4.57;;;4.20;;
11338;SDS011;5724;42.684;23.252;2022-08-19T13:36:31;5.53;;;3.75;;
11338;SDS011;5724;42.684;23.252;2022-08-19T13:39:00;4.10;;;3.90;;
11338;SDS011;5724;42.684;23.252;2022-08-19T13:41:26;4.18;;;3.95;;
11338;SDS011;5724;42.684;23.252;2022-08-19T13:43:52;4.18;;;3.88;;
11338;SDS011;5724;42.684;23.252;2022-08-19T13:46:17;4.53;;;4.15;;
11338;SDS011;5724;42.684;23.252;2022-08-19T13:48:44;5.13;;;3.95;;
11338;SDS011;5724;42.684;23.252;2022-08-19T13:51:10;6.60;;;3.90;;
11338;SDS011;5724;42.684;23.252;2022-08-19T13:53:36;4.30;;;3.90;;
11338;SDS011;5724;42.684;23.252;2022-08-19T13:56:08;4.18;;;3.78;;
11338;SDS011;5724;42.684;23.252;2022-08-19T13:58:36;5.65;;;4.55;;
11338;SDS011;5724;42.684;23.252;2022-08-19T14:01:03;4.22;;;3.90;;
11338;SDS011;5724;42.684;23.252;2022-08-19T14:03:29;5.22;;;4.18;;
11338;SDS011;5724;42.684;23.252;2022-08-19T14:05:56;4.47;;;4.18;;
11338;SDS011;5724;42.684;23.252;2022-08-19T14:08:22;4.40;;;4.00;;
11338;SDS011;5724;42.684;23.252;2022-08-19T14:10:48;4.85;;;4.45;;
11338;SDS011;5724;42.684;23.252;2022-08-19T14:13:15;4.47;;;4.07;;
11338;SDS011;5724;42.684;23.252;2022-08-19T14:15:43;4.63;;;4.28;;
11338;SDS011;5724;42.684;23.252;2022-08-19T14:18:10;4.80;;;4.00;;
11338;SDS011;5724;42.684;23.252;2022-08-19T14:20:36;4.63;;;4.18;;
11338;SDS011;5724;42.684;23.252;2022-08-19T14:23:02;4.07;;;3.70;;
11338;SDS011;5724;42.684;23.252;2022-08-19T14:25:29;5.72;;;3.95;;
11338;SDS011;5724;42.684;23.252;2022-08-19T14:27:56;4.72;;;4.43;;
11338;SDS011;5724;42.684;23.252;2022-08-19T14:30:23;4.60;;;4.20;;
11338;SDS011;5724;42.684;23.252;2022-08-19T14:32:53;4.13;;;3.72;;
11338;SDS011;5724;42.684;23.252;2022-08-19T14:35:20;7.10;;;4.18;;
11338;SDS011;5724;42.684;23.252;2022-08-19T14:37:47;5.60;;;4.15;;
11338;SDS011;5724;42.684;23.252;2022-08-19T14:40:15;4.57;;;4.30;;
11338;SDS011;5724;42.684;23.252;2022-08-19T14:42:43;4.70;;;4.30;;
11338;SDS011;5724;42.684;23.252;2022-08-19T14:45:09;4.53;;;4.32;;
11338;SDS011;5724;42.684;23.252;2022-08-19T14:47:36;4.55;;;4.25;;
11338;SDS011;5724;42.684;23.252;2022-08-19T14:50:03;4.38;;;3.80;;
11338;SDS011;5724;42.684;23.252;2022-08-19T14:52:31;8.32;;;4.60;;
11338;SDS011;5724;42.684;23.252;2022-08-19T14:54:57;7.60;;;4.75;;
11338;SDS011;5724;42.684;23.252;2022-08-19T14:57:22;7.03;;;4.30;;
11338;SDS011;5724;42.684;23.252;2022-08-19T14:59:48;4.88;;;4.50;;
11338;SDS011;5724;42.684;23.252;2022-08-19T15:02:14;4.88;;;4.43;;
11338;SDS011;5724;42.684;23.252;2022-08-19T15:04:39;5.07;;;4.30;;
11338;SDS011;5724;42.684;23.252;2022-08-19T15:07:05;5.28;;;4.30;;